National Weather Service United States Department of Commerce
Click Here for Latest Airport Weather Warnings
 
Latest Huntsville TAF


000
FTUS44 KHUN 260533
TAFHSV
TAF
KHSV 260533Z 2606/2706 22010KT P6SM SCT010 BKN025
FM260900 24008KT 4SM BR FEW016 BKN025
FM261200 25008KT P6SM FEW090 FEW200=

Latest Muscle Shoals TAF


000
FTUS44 KHUN 260533
TAFMSL
TAF
KMSL 260533Z 2606/2706 23010KT P6SM FEW015 SCT030
FM260900 26008KT 4SM BR FEW016 BKN025
FM261200 25008KT P6SM FEW090 SCT200=


Back to Main Huntsville Weather Forecast Office Page